createdAt,value
2018-06-17T00:00:42.041Z,78.81
2018-06-17T00:01:41.954Z,78.23
2018-06-17T00:02:41.878Z,78.96
2018-06-17T00:03:41.806Z,78.58
2018-06-17T00:04:41.733Z,78.71
2018-06-17T00:05:41.655Z,78.48
2018-06-17T00:06:41.579Z,78.19
2018-06-17T00:07:41.503Z,77.90
2018-06-17T00:08:41.417Z,77.71
2018-06-17T00:09:41.343Z,77.71
2018-06-17T00:10:41.268Z,77.61
2018-06-17T00:11:41.197Z,77.23
2018-06-17T00:12:41.117Z,77.04
2018-06-17T00:13:41.054Z,77.71
2018-06-17T00:14:40.955Z,78.19
2018-06-17T00:15:40.879Z,78.28
2018-06-17T00:16:40.804Z,78.00
2018-06-17T00:17:40.730Z,78.28
2018-06-17T00:18:40.659Z,78.19
2018-06-17T00:19:40.580Z,78.38
2018-06-17T00:20:40.505Z,78.86
2018-06-17T00:21:40.418Z,78.38
2018-06-17T00:22:40.343Z,79.05
2018-06-17T00:23:40.268Z,78.92
2018-06-17T00:24:40.195Z,78.53
2018-06-17T00:25:40.119Z,78.92
2018-06-17T00:26:40.044Z,79.02
2018-06-17T00:27:39.969Z,79.11
2018-06-17T00:28:39.881Z,78.53
2018-06-17T00:29:39.806Z,78.83
2018-06-17T00:30:39.731Z,78.92
2018-06-17T00:31:39.670Z,79.11
2018-06-17T00:32:39.581Z,79.11
2018-06-17T00:33:39.497Z,78.53
2018-06-17T00:34:39.420Z,78.83
2018-06-17T00:35:39.344Z,78.06
2018-06-17T00:36:39.270Z,78.44
2018-06-17T00:37:39.199Z,78.34
2018-06-17T00:38:39.121Z,78.44
2018-06-17T00:39:39.032Z,78.73
2018-06-17T00:40:38.970Z,78.63
2018-06-17T00:41:38.884Z,79.30
2018-06-17T00:42:38.808Z,79.02
2018-06-17T00:43:38.732Z,79.60
2018-06-17T00:44:38.672Z,79.50
2018-06-17T00:45:38.572Z,79.21
2018-06-17T00:46:38.501Z,79.60
2018-06-17T00:47:38.422Z,80.27
2018-06-17T00:48:38.347Z,80.46
2018-06-17T00:49:38.273Z,80.65
2018-06-17T00:50:38.183Z,80.51
2018-06-17T00:51:38.108Z,80.61
2018-06-17T00:52:38.034Z,80.80
2018-06-17T00:53:37.972Z,80.61
2018-06-17T00:54:37.884Z,80.32
2018-06-17T00:55:37.803Z,80.42
2018-06-17T00:56:37.722Z,80.80
2018-06-17T00:57:37.648Z,80.61
2018-06-17T00:58:37.573Z,80.99
2018-06-17T00:59:37.498Z,80.61
2018-06-17T01:00:37.423Z,80.61
2018-06-17T01:01:37.335Z,81.28
2018-06-17T01:02:37.260Z,80.80
2018-06-17T01:03:37.185Z,81.24
2018-06-17T01:04:37.109Z,81.67
2018-06-17T01:05:37.036Z,81.15
2018-06-17T01:06:36.953Z,80.99
2018-06-17T01:07:36.874Z,81.43
2018-06-17T01:08:36.799Z,80.99
2018-06-17T01:09:36.724Z,81.43
2018-06-17T01:10:36.639Z,81.09
2018-06-17T01:11:36.561Z,81.82
2018-06-17T01:12:36.486Z,80.86
2018-06-17T01:13:36.412Z,81.34
2018-06-17T01:14:36.336Z,81.28
2018-06-17T01:15:36.250Z,81.53
2018-06-17T01:16:36.175Z,81.92
2018-06-17T01:17:36.105Z,81.34
2018-06-17T01:18:36.025Z,81.53
2018-06-17T01:19:35.951Z,81.63
2018-06-17T01:20:35.863Z,81.92
2018-06-17T01:21:35.787Z,81.63
2018-06-17T01:22:35.712Z,81.82
2018-06-17T01:23:35.637Z,82.20
2018-06-17T01:24:35.564Z,82.68
2018-06-17T01:25:35.478Z,82.20
2018-06-17T01:26:35.402Z,82.01
2018-06-17T01:27:35.326Z,82.20
2018-06-17T01:28:35.250Z,82.20
2018-06-17T01:29:35.163Z,82.10
2018-06-17T01:30:35.101Z,81.59
2018-06-17T01:31:35.013Z,81.87
2018-06-17T01:32:34.938Z,82.07
2018-06-17T01:33:34.863Z,81.59
2018-06-17T01:34:34.776Z,82.16
2018-06-17T01:35:34.702Z,82.26
2018-06-17T01:36:34.627Z,82.16
2018-06-17T01:37:34.551Z,82.26
2018-06-17T01:38:34.464Z,82.45
2018-06-17T01:39:34.402Z,82.16
2018-06-17T01:40:34.314Z,82.16
2018-06-17T01:41:34.239Z,82.07
2018-06-17T01:42:34.164Z,82.35
2018-06-17T01:43:34.079Z,82.84
2018-06-17T01:44:34.003Z,82.84
2018-06-17T01:45:33.929Z,82.84
2018-06-17T01:46:33.840Z,83.03
2018-06-17T01:47:33.765Z,83.70
2018-06-17T01:48:33.703Z,83.12
2018-06-17T01:49:33.615Z,83.31
2018-06-17T01:50:33.545Z,83.31
2018-06-17T01:51:33.454Z,83.51
2018-06-17T01:52:33.383Z,83.22
2018-06-17T01:53:33.304Z,83.41
2018-06-17T01:54:33.216Z,83.03
2018-06-17T01:55:33.144Z,82.74
2018-06-17T01:56:33.066Z,82.16
2018-06-17T01:57:32.992Z,82.93
2018-06-17T01:58:32.905Z,82.64
2018-06-17T01:59:32.829Z,83.12
2018-06-17T02:00:32.755Z,83.41
2018-06-17T02:01:32.680Z,83.60
2018-06-17T02:02:32.593Z,83.60
2018-06-17T02:03:32.520Z,83.41
2018-06-17T02:04:32.443Z,83.56
2018-06-17T02:05:32.367Z,83.56
2018-06-17T02:06:32.281Z,83.47
2018-06-17T02:07:32.206Z,83.41
2018-06-17T02:08:32.131Z,83.47
2018-06-17T02:09:32.055Z,83.37
2018-06-17T02:10:31.970Z,83.27
2018-06-17T02:11:31.892Z,83.18
2018-06-17T02:12:31.817Z,83.31
2018-06-17T02:13:31.743Z,83.37
2018-06-17T02:14:31.655Z,84.04
2018-06-17T02:15:31.581Z,83.94
2018-06-17T02:16:31.507Z,83.85
2018-06-17T02:17:31.420Z,83.85
2018-06-17T02:18:31.344Z,84.04
2018-06-17T02:19:31.269Z,83.27
2018-06-17T02:20:31.194Z,83.65
2018-06-17T02:21:31.107Z,83.47
2018-06-17T02:22:31.033Z,83.65
2018-06-17T02:23:30.957Z,83.56
2018-06-17T02:24:30.882Z,82.98
2018-06-17T02:25:30.794Z,83.47
2018-06-17T02:26:30.719Z,84.14
2018-06-17T02:27:30.644Z,83.47
2018-06-17T02:28:30.570Z,83.65
2018-06-17T02:29:30.483Z,84.04
2018-06-17T02:30:30.409Z,83.85
2018-06-17T02:31:30.333Z,83.85
2018-06-17T02:32:30.258Z,84.33
2018-06-17T02:33:30.170Z,84.52
2018-06-17T02:34:30.108Z,84.33
2018-06-17T02:35:30.021Z,83.91
2018-06-17T02:36:29.934Z,84.04
2018-06-17T02:37:29.871Z,84.04
2018-06-17T02:38:29.784Z,83.91
2018-06-17T02:39:29.710Z,84.14
2018-06-17T02:40:29.621Z,83.94
2018-06-17T02:41:29.546Z,84.14
2018-06-17T02:42:29.471Z,84.04
2018-06-17T02:43:29.396Z,84.52
2018-06-17T02:44:29.309Z,84.00
2018-06-17T02:45:29.236Z,83.91
2018-06-17T02:46:29.160Z,84.28
2018-06-17T02:47:29.074Z,84.33
2018-06-17T02:48:28.998Z,84.00
2018-06-17T02:49:28.925Z,84.09
2018-06-17T02:50:28.862Z,84.58
2018-06-17T02:51:28.761Z,84.00
2018-06-17T02:52:28.692Z,84.58
2018-06-17T02:53:28.611Z,84.38
2018-06-17T02:54:28.523Z,84.67
2018-06-17T02:55:28.461Z,84.58
2018-06-17T02:56:28.373Z,84.48
2018-06-17T02:57:28.298Z,84.09
2018-06-17T02:58:28.213Z,84.48
2018-06-17T02:59:28.139Z,84.58
2018-06-17T03:00:28.063Z,84.19
2018-06-17T03:01:27.974Z,84.48
2018-06-17T03:02:27.900Z,84.58
2018-06-17T03:03:27.824Z,84.28
2018-06-17T03:04:27.749Z,84.67
2018-06-17T03:05:27.663Z,84.86
2018-06-17T03:06:27.591Z,84.86
2018-06-17T03:07:27.574Z,84.77
2018-06-17T03:08:27.425Z,84.58
2018-06-17T03:09:27.351Z,84.48
2018-06-17T03:10:27.303Z,85.05
2018-06-17T03:11:27.195Z,84.86
2018-06-17T03:12:27.112Z,84.95
2018-06-17T03:13:27.040Z,84.86
2018-06-17T03:14:26.963Z,84.95
2018-06-17T03:15:26.875Z,84.86
2018-06-17T03:16:26.801Z,85.34
2018-06-17T03:17:26.725Z,84.86
2018-06-17T03:18:26.639Z,84.86
2018-06-17T03:19:26.564Z,84.95
2018-06-17T03:20:26.489Z,85.25
2018-06-17T03:21:26.405Z,85.34
2018-06-17T03:22:26.326Z,85.34
2018-06-17T03:23:26.251Z,85.25
2018-06-17T03:24:26.176Z,85.25
2018-06-17T03:25:26.089Z,85.44
2018-06-17T03:26:26.015Z,85.15
2018-06-17T03:27:25.940Z,85.25
2018-06-17T03:28:25.853Z,85.44
2018-06-17T03:29:25.777Z,85.15
2018-06-17T03:30:25.703Z,85.15
2018-06-17T03:31:25.631Z,85.34
2018-06-17T03:32:25.540Z,85.53
2018-06-17T03:33:25.466Z,85.72
2018-06-17T03:34:25.390Z,85.44
2018-06-17T03:35:25.304Z,85.34
2018-06-17T03:36:25.241Z,85.15
2018-06-17T03:37:25.153Z,85.15
2018-06-17T03:38:25.077Z,85.44
2018-06-17T03:39:24.991Z,85.63
2018-06-17T03:40:24.917Z,85.44
2018-06-17T03:41:24.841Z,85.82
2018-06-17T03:42:24.757Z,85.53
2018-06-17T03:43:24.678Z,85.38
2018-06-17T03:44:24.604Z,85.34
2018-06-17T03:45:24.529Z,84.91
2018-06-17T03:46:24.443Z,85.25
2018-06-17T03:47:24.368Z,85.48
2018-06-17T03:48:24.293Z,85.28
2018-06-17T03:49:24.204Z,85.86
2018-06-17T03:50:24.132Z,85.28
2018-06-17T03:51:24.067Z,85.77
2018-06-17T03:52:23.979Z,85.58
2018-06-17T03:53:23.893Z,85.48
2018-06-17T03:54:23.820Z,86.05
2018-06-17T03:55:23.744Z,86.05
2018-06-17T03:56:23.672Z,85.58
2018-06-17T03:57:23.580Z,85.38
2018-06-17T03:58:23.505Z,85.67
2018-06-17T03:59:23.430Z,85.48
2018-06-17T04:00:23.347Z,85.96
2018-06-17T04:01:23.269Z,86.34
2018-06-17T04:02:23.194Z,86.05
2018-06-17T04:03:23.107Z,86.25
2018-06-17T04:04:23.031Z,85.96
2018-06-17T04:05:22.956Z,85.96
2018-06-17T04:06:22.881Z,85.96
2018-06-17T04:07:22.795Z,86.15
2018-06-17T04:08:22.719Z,86.34
2018-06-17T04:09:22.650Z,86.25
2018-06-17T04:10:22.586Z,86.15
2018-06-17T04:11:22.482Z,85.48
2018-06-17T04:12:22.420Z,85.96
2018-06-17T04:13:22.332Z,85.96
2018-06-17T04:14:22.248Z,86.10
2018-06-17T04:15:22.170Z,85.77
2018-06-17T04:16:22.096Z,85.77
2018-06-17T04:17:22.010Z,84.91
2018-06-17T04:18:21.932Z,85.81
2018-06-17T04:19:21.858Z,85.91
2018-06-17T04:20:21.782Z,85.04
2018-06-17T04:21:21.708Z,85.04
2018-06-17T04:22:21.621Z,85.24
2018-06-17T04:23:21.546Z,84.85
2018-06-17T04:24:21.471Z,84.85
2018-06-17T04:25:21.401Z,85.33
2018-06-17T04:26:21.309Z,84.95
2018-06-17T04:27:21.247Z,85.14
2018-06-17T04:28:21.158Z,85.24
2018-06-17T04:29:21.072Z,84.37
2018-06-17T04:30:20.998Z,84.41
2018-06-17T04:31:20.922Z,84.31
2018-06-17T04:32:20.847Z,84.22
2018-06-17T04:33:20.759Z,83.30
2018-06-17T04:34:20.697Z,83.59
2018-06-17T04:35:20.610Z,83.69
2018-06-17T04:36:20.534Z,82.86
2018-06-17T04:37:20.449Z,82.52
2018-06-17T04:38:20.373Z,81.46
2018-06-17T04:39:20.298Z,81.30
2018-06-17T04:40:20.230Z,79.96
2018-06-17T04:41:20.136Z,80.38
2018-06-17T04:42:20.060Z,78.94
2018-06-17T04:43:19.999Z,78.50
2018-06-17T04:44:19.910Z,77.73
2018-06-17T04:45:19.835Z,78.15
2018-06-17T04:46:19.751Z,75.84
2018-06-17T04:47:19.674Z,74.88
2018-06-17T04:48:19.599Z,73.75
2018-06-17T04:49:19.525Z,73.60
2018-06-17T04:50:19.450Z,73.50
2018-06-17T04:51:19.368Z,71.58
2018-06-17T04:52:19.287Z,70.80
2018-06-17T04:53:19.211Z,69.68
2018-06-17T04:54:19.136Z,70.45
2018-06-17T04:55:19.065Z,69.81
2018-06-17T04:56:18.990Z,70.39
2018-06-17T04:57:18.913Z,70.16
2018-06-17T04:58:18.838Z,70.54
2018-06-17T04:59:18.764Z,70.22
2018-06-17T05:00:18.676Z,71.73
2018-06-17T05:01:18.601Z,73.33
2018-06-17T05:02:18.527Z,74.40
2018-06-17T05:03:18.455Z,74.97
2018-06-17T05:04:18.376Z,75.16
2018-06-17T05:05:18.301Z,75.45
2018-06-17T05:06:18.229Z,75.07
2018-06-17T05:07:18.151Z,75.99
2018-06-17T05:08:18.077Z,76.18
2018-06-17T05:09:18.005Z,76.71
2018-06-17T05:10:17.929Z,75.99
2018-06-17T05:11:17.840Z,76.18
2018-06-17T05:12:17.764Z,76.38
2018-06-17T05:13:17.702Z,76.67
2018-06-17T05:14:17.617Z,76.96
2018-06-17T05:15:17.539Z,76.48
2018-06-17T05:16:17.465Z,76.48
2018-06-17T05:17:17.403Z,76.57
2018-06-17T05:18:17.315Z,77.15
2018-06-17T05:19:17.240Z,76.96
2018-06-17T05:20:17.165Z,76.57
2018-06-17T05:21:17.079Z,76.28
2018-06-17T05:22:17.004Z,76.86
2018-06-17T05:23:16.929Z,75.99
2018-06-17T05:24:16.853Z,76.57
2018-06-17T05:25:16.779Z,75.51
2018-06-17T05:26:16.705Z,76.96
2018-06-17T05:27:16.630Z,76.57
2018-06-17T05:28:16.554Z,76.67
2018-06-17T05:29:16.481Z,76.71
2018-06-17T05:30:16.392Z,76.48
2018-06-17T05:31:16.329Z,76.71
2018-06-17T05:32:16.241Z,76.86
2018-06-17T05:33:16.166Z,77.06
2018-06-17T05:34:16.092Z,76.32
2018-06-17T05:35:16.030Z,76.03
2018-06-17T05:36:15.941Z,76.61
2018-06-17T05:37:15.869Z,76.71
2018-06-17T05:38:15.792Z,76.61
2018-06-17T05:39:15.706Z,76.71
2018-06-17T05:40:15.631Z,76.03
2018-06-17T05:41:15.556Z,76.42
2018-06-17T05:42:15.481Z,76.51
2018-06-17T05:43:15.407Z,75.45
2018-06-17T05:44:15.331Z,75.84
2018-06-17T05:45:15.256Z,76.23
2018-06-17T05:46:15.185Z,75.88
2018-06-17T05:47:15.113Z,76.36
2018-06-17T05:48:15.020Z,76.26
2018-06-17T05:49:14.946Z,77.61
2018-06-17T05:50:14.881Z,76.93
2018-06-17T05:51:14.794Z,76.07
2018-06-17T05:52:14.719Z,76.07
2018-06-17T05:53:14.644Z,76.36
2018-06-17T05:54:14.569Z,76.65
2018-06-17T05:55:14.494Z,76.84
2018-06-17T05:56:14.422Z,75.88
2018-06-17T05:57:14.344Z,76.36
2018-06-17T05:58:14.269Z,76.07
2018-06-17T05:59:14.183Z,75.88
2018-06-17T06:00:14.109Z,76.17
2018-06-17T06:01:14.033Z,76.01
2018-06-17T06:02:13.958Z,75.53
2018-06-17T06:03:13.883Z,75.53
2018-06-17T06:04:13.809Z,76.40
2018-06-17T06:05:13.733Z,75.72
2018-06-17T06:06:13.658Z,75.14
2018-06-17T06:07:13.583Z,75.43
2018-06-17T06:08:13.509Z,74.76
2018-06-17T06:09:13.422Z,75.72
2018-06-17T06:10:13.346Z,74.66
2018-06-17T06:11:13.271Z,74.57
2018-06-17T06:12:13.196Z,74.47
2018-06-17T06:13:13.121Z,74.66
2018-06-17T06:14:13.046Z,75.14
2018-06-17T06:15:12.974Z,74.66
2018-06-17T06:16:12.916Z,75.24
2018-06-17T06:17:12.821Z,75.62
2018-06-17T06:18:12.747Z,75.43
2018-06-17T06:19:12.673Z,74.76
2018-06-17T06:20:12.613Z,75.24
2018-06-17T06:21:12.522Z,74.18
2018-06-17T06:22:12.447Z,75.05
2018-06-17T06:23:12.373Z,75.05
2018-06-17T06:24:12.310Z,75.14
2018-06-17T06:25:12.211Z,74.66
2018-06-17T06:26:12.136Z,74.79
2018-06-17T06:27:12.072Z,74.79
2018-06-17T06:28:11.986Z,74.31
2018-06-17T06:29:11.911Z,74.79
2018-06-17T06:30:11.852Z,74.69
2018-06-17T06:31:11.776Z,74.69
2018-06-17T06:32:11.686Z,74.79
2018-06-17T06:33:11.611Z,74.31
2018-06-17T06:34:11.536Z,74.31
2018-06-17T06:35:11.461Z,73.44
2018-06-17T06:36:11.388Z,73.44
2018-06-17T06:37:11.340Z,73.63
2018-06-17T06:38:11.237Z,73.28
2018-06-17T06:39:11.163Z,72.48
2018-06-17T06:40:11.088Z,73.93
2018-06-17T06:41:11.012Z,73.73
2018-06-17T06:42:10.939Z,73.25
2018-06-17T06:43:10.863Z,72.22
2018-06-17T06:44:10.788Z,72.42
2018-06-17T06:45:10.712Z,73.00
2018-06-17T06:46:10.637Z,71.84
2018-06-17T06:47:10.563Z,71.36
2018-06-17T06:48:10.488Z,72.71
2018-06-17T06:49:10.413Z,72.42
2018-06-17T06:50:10.327Z,71.64
2018-06-17T06:51:10.331Z,72.64
2018-06-17T06:52:10.176Z,72.06
2018-06-17T06:53:10.102Z,72.06
2018-06-17T06:54:10.027Z,70.81
2018-06-17T06:55:09.953Z,69.74
2018-06-17T06:56:09.877Z,70.14
2018-06-17T06:57:09.804Z,70.42
2018-06-17T06:58:09.727Z,70.42
2018-06-17T06:59:09.666Z,70.14
2018-06-17T07:00:09.580Z,70.52
2018-06-17T07:01:09.502Z,70.04
2018-06-17T07:02:09.427Z,69.26
2018-06-17T07:03:09.353Z,69.26
2018-06-17T07:04:09.279Z,69.07
2018-06-17T07:05:09.203Z,69.17
2018-06-17T07:06:09.129Z,68.59
2018-06-17T07:07:09.065Z,68.98
2018-06-17T07:08:08.990Z,68.68
2018-06-17T07:09:08.916Z,68.98
2018-06-17T07:10:08.841Z,68.10
2018-06-17T07:11:08.765Z,68.40
2018-06-17T07:12:08.691Z,69.07
2018-06-17T07:13:08.617Z,68.43
2018-06-17T07:14:08.541Z,69.01
2018-06-17T07:15:08.466Z,68.52
2018-06-17T07:16:08.392Z,68.08
2018-06-17T07:17:08.319Z,68.27
2018-06-17T07:18:08.241Z,67.79
2018-06-17T07:19:08.167Z,67.98
2018-06-17T07:20:08.092Z,68.21
2018-06-17T07:21:08.018Z,67.49
2018-06-17T07:22:07.943Z,67.14
2018-06-17T07:23:07.867Z,66.17
2018-06-17T07:24:07.792Z,65.88
2018-06-17T07:25:07.778Z,66.47
2018-06-17T07:26:07.646Z,66.08
2018-06-17T07:27:07.579Z,65.88
2018-06-17T07:28:07.505Z,65.79
2018-06-17T07:29:07.443Z,66.56
2018-06-17T07:30:07.354Z,64.92
2018-06-17T07:31:07.293Z,65.30
2018-06-17T07:32:07.207Z,66.20
2018-06-17T07:33:07.131Z,64.85
2018-06-17T07:34:07.055Z,65.34
2018-06-17T07:35:06.981Z,65.72
2018-06-17T07:36:06.906Z,65.08
2018-06-17T07:37:06.836Z,65.47
2018-06-17T07:38:06.769Z,65.37
2018-06-17T07:39:06.694Z,65.27
2018-06-17T07:40:06.621Z,63.82
2018-06-17T07:41:06.549Z,63.07
2018-06-17T07:42:06.470Z,62.10
2018-06-17T07:43:06.395Z,61.17
2018-06-17T07:44:06.324Z,60.97
2018-06-17T07:45:06.257Z,61.07
2018-06-17T07:46:06.195Z,59.87
2018-06-17T07:47:06.106Z,58.93
2018-06-17T07:48:06.032Z,57.60
2018-06-17T07:49:05.962Z,56.75
2018-06-17T07:50:05.896Z,55.71
2018-06-17T07:51:05.821Z,54.74
2018-06-17T07:52:05.757Z,56.36
2018-06-17T07:53:05.683Z,56.16
2018-06-17T07:54:05.608Z,55.78
2018-06-17T07:55:05.533Z,55.32
2018-06-17T07:56:05.524Z,57.28
2018-06-17T07:57:05.396Z,56.95
2018-06-17T07:58:05.333Z,55.74
2018-06-17T07:59:05.258Z,55.35
2018-06-17T08:00:05.184Z,54.40
2018-06-17T08:01:05.128Z,53.91
2018-06-17T08:02:05.048Z,53.91
2018-06-17T08:03:04.984Z,53.55
2018-06-17T08:04:04.922Z,53.06
2018-06-17T08:05:04.847Z,53.06
2018-06-17T08:06:04.785Z,53.06
2018-06-17T08:07:04.711Z,53.38
2018-06-17T08:08:04.650Z,52.73
2018-06-17T08:09:04.575Z,52.34
2018-06-17T08:10:04.510Z,52.44
2018-06-17T08:11:04.470Z,51.70
2018-06-17T08:12:04.373Z,51.12
2018-06-17T08:13:04.311Z,51.21
2018-06-17T08:14:04.235Z,50.14
2018-06-17T08:15:04.174Z,50.65
2018-06-17T08:16:04.110Z,50.36
2018-06-17T08:17:04.035Z,49.78
2018-06-17T08:18:03.973Z,50.21
2018-06-17T08:19:03.910Z,52.09
2018-06-17T08:20:03.836Z,52.94
2018-06-17T08:21:03.776Z,55.03
2018-06-17T08:22:03.711Z,55.80
2018-06-17T08:23:03.637Z,53.91
2018-06-17T08:24:03.575Z,53.94
2018-06-17T08:25:03.511Z,52.99
2018-06-17T08:26:03.456Z,53.38
2018-06-17T08:27:03.376Z,53.09
2018-06-17T08:28:03.311Z,52.44
2018-06-17T08:29:03.250Z,52.14
2018-06-17T08:30:03.176Z,51.19
2018-06-17T08:31:03.113Z,51.41
2018-06-17T08:32:03.050Z,50.99
2018-06-17T08:33:02.975Z,50.43
2018-06-17T08:34:02.913Z,50.16
2018-06-17T08:35:02.851Z,49.41
2018-06-17T08:36:02.800Z,49.19
2018-06-17T08:37:02.712Z,49.07
2018-06-17T08:38:02.651Z,49.66
2018-06-17T08:39:02.590Z,49.98
2018-06-17T08:40:02.526Z,50.51
2018-06-17T08:41:02.451Z,50.99
2018-06-17T08:42:02.390Z,52.14
2018-06-17T08:43:02.326Z,51.12
2018-06-17T08:44:02.263Z,52.53
2018-06-17T08:45:02.202Z,52.22
2018-06-17T08:46:02.127Z,53.06
2018-06-17T08:47:02.065Z,53.59
2018-06-17T08:48:02.002Z,54.66
2018-06-17T08:49:01.939Z,54.96
2018-06-17T08:50:01.865Z,55.64
2018-06-17T08:51:01.803Z,54.47
2018-06-17T08:52:01.742Z,54.96
2018-06-17T08:53:01.666Z,55.74
2018-06-17T08:54:01.604Z,55.64
2018-06-17T08:55:01.540Z,56.26
2018-06-17T08:56:01.479Z,57.23
2018-06-17T08:57:01.406Z,57.00
2018-06-17T08:58:01.340Z,55.74
2018-06-17T08:59:01.281Z,56.41
2018-06-17T09:00:01.217Z,55.66
2018-06-17T09:01:01.142Z,53.77
2018-06-17T09:02:01.079Z,53.97
2018-06-17T09:03:01.017Z,53.85
2018-06-17T09:04:00.941Z,53.36
2018-06-17T09:05:00.879Z,53.38
2018-06-17T09:06:00.859Z,52.92
2018-06-17T09:07:00.742Z,51.85
2018-06-17T09:08:00.680Z,51.63
2018-06-17T09:09:00.616Z,50.99
2018-06-17T09:10:00.543Z,49.85
2018-06-17T09:11:00.484Z,50.04
2018-06-17T09:12:00.417Z,50.34
2018-06-17T09:13:00.355Z,50.14
2018-06-17T09:14:00.281Z,50.63
2018-06-17T09:15:00.217Z,49.93
2018-06-17T09:16:00.156Z,49.95
2018-06-17T09:17:00.094Z,50.16
2018-06-17T09:18:00.036Z,49.00
2018-06-17T09:18:59.955Z,49.41
2018-06-17T09:19:59.896Z,49.17
2018-06-17T09:20:59.889Z,49.83
2018-06-17T09:21:59.767Z,49.95
2018-06-17T09:22:59.705Z,50.24
2018-06-17T09:23:59.631Z,50.68
2018-06-17T09:24:59.569Z,52.58
2018-06-17T09:25:59.507Z,52.94
2018-06-17T09:26:59.443Z,54.35
2018-06-17T09:27:59.382Z,55.25
2018-06-17T09:28:59.318Z,54.43
2018-06-17T09:29:59.243Z,53.16
2018-06-17T09:30:59.183Z,51.92
2018-06-17T09:31:59.176Z,52.22
2018-06-17T09:32:59.057Z,52.14
2018-06-17T09:33:58.993Z,51.56
2018-06-17T09:34:58.919Z,50.92
2018-06-17T09:35:58.857Z,50.56
2018-06-17T09:36:58.797Z,50.26
2018-06-17T09:37:58.786Z,50.53
2018-06-17T09:38:58.669Z,49.90
2018-06-17T09:39:58.608Z,50.10
2018-06-17T09:40:58.533Z,48.36
2018-06-17T09:44:47.007Z,46.37
2018-06-17T09:45:46.934Z,45.57
2018-06-17T09:46:49.508Z,45.86
2018-06-17T09:47:46.808Z,45.86
2018-06-17T09:48:47.145Z,45.65
2018-06-17T09:49:46.684Z,45.31
2018-06-17T09:50:46.621Z,45.90
2018-06-17T09:51:46.560Z,46.48
2018-06-17T09:52:46.496Z,46.48
2018-06-17T09:53:46.421Z,46.00
2018-06-17T09:54:46.364Z,45.82
2018-06-17T09:55:46.296Z,45.70
2018-06-17T09:56:46.235Z,45.36
2018-06-17T09:57:46.171Z,45.33
2018-06-17T09:58:46.109Z,45.70
2018-06-17T09:59:46.060Z,45.90
2018-06-17T10:00:45.986Z,45.62
2018-06-17T10:01:45.933Z,43.91
2018-06-17T10:02:45.861Z,45.29
2018-06-17T10:03:45.798Z,46.90
2018-06-17T10:04:45.736Z,47.19
2018-06-17T10:05:45.672Z,46.83
2018-06-17T10:06:45.611Z,46.29
2018-06-17T10:07:45.548Z,45.41
2018-06-17T10:08:45.474Z,45.51
2018-06-17T10:09:45.412Z,45.39
2018-06-17T10:10:45.349Z,45.19
2018-06-17T10:11:45.287Z,46.24
2018-06-17T10:12:45.223Z,45.92
2018-06-17T10:13:45.166Z,46.78
2018-06-17T10:14:45.099Z,48.05
2018-06-17T10:15:45.027Z,48.34
2018-06-17T10:16:44.964Z,47.17
2018-06-17T10:17:44.899Z,47.63
2018-06-17T10:18:44.837Z,47.44
2018-06-17T10:19:44.774Z,48.41
2018-06-17T10:20:44.699Z,48.68
2018-06-17T10:21:44.637Z,48.58
2018-06-17T10:22:44.588Z,47.83
2018-06-17T10:23:44.501Z,48.32
2018-06-17T10:24:44.449Z,47.92
2018-06-17T10:25:44.390Z,48.29
2018-06-17T10:26:44.312Z,48.68
2018-06-17T10:27:44.251Z,49.56
2018-06-17T10:28:44.188Z,50.02
2018-06-17T10:29:44.102Z,50.60
2018-06-17T10:30:44.041Z,50.99
2018-06-17T10:31:43.975Z,51.29
2018-06-17T10:32:43.901Z,51.07
2018-06-17T10:33:43.840Z,52.28
2018-06-17T10:34:43.776Z,53.18
2018-06-17T10:35:43.703Z,53.06
2018-06-17T10:36:43.639Z,54.20
2018-06-17T10:37:43.564Z,54.61
2018-06-17T10:38:43.501Z,53.74
2018-06-17T10:39:43.440Z,53.28
2018-06-17T10:40:43.364Z,53.28
2018-06-17T10:41:43.304Z,52.40
2018-06-17T10:42:43.226Z,52.50
2018-06-17T10:43:43.165Z,52.23
2018-06-17T10:44:43.090Z,53.30
2018-06-17T10:45:43.026Z,52.26
2018-06-17T10:46:42.964Z,51.21
2018-06-17T10:47:42.892Z,51.31
2018-06-17T10:48:42.830Z,49.71
2018-06-17T10:49:42.756Z,49.32
2018-06-17T10:50:42.697Z,49.99
2018-06-17T10:51:42.627Z,50.12
2018-06-17T10:52:42.557Z,48.29
2018-06-17T10:53:42.491Z,46.75
2018-06-17T10:54:42.428Z,46.75
2018-06-17T10:55:42.429Z,48.29
2018-06-17T10:56:42.291Z,48.85
2018-06-17T10:57:42.228Z,50.56
2018-06-17T10:58:42.168Z,50.04
2018-06-17T10:59:42.103Z,48.41
2018-06-17T11:00:42.029Z,47.73
2018-06-17T11:01:41.967Z,47.05
2018-06-17T11:02:41.904Z,46.29
2018-06-17T11:03:41.842Z,47.34
2018-06-17T11:04:41.779Z,46.29
2018-06-17T11:05:41.838Z,45.72
2018-06-17T11:06:41.643Z,45.84
2018-06-17T11:07:41.579Z,44.62
2018-06-17T11:08:41.518Z,44.81
2018-06-17T11:09:41.454Z,44.27
2018-06-17T11:10:41.393Z,42.94
2018-06-17T11:11:41.344Z,41.49
2018-06-17T11:12:41.271Z,41.72
2018-06-17T11:13:41.193Z,42.15
2018-06-17T11:14:41.130Z,42.50
2018-06-17T11:15:41.068Z,42.45
2018-06-17T11:16:41.005Z,42.72
2018-06-17T11:17:40.943Z,42.35
2018-06-17T11:18:40.880Z,41.56
2018-06-17T11:19:40.829Z,42.41
2018-06-17T11:20:40.756Z,41.52
2018-06-17T11:21:40.694Z,42.03
2018-06-17T11:22:40.631Z,41.35
2018-06-17T11:23:40.569Z,41.62
2018-06-17T11:24:40.506Z,42.38
2018-06-17T11:25:40.445Z,43.01
2018-06-17T11:26:40.390Z,42.31
2018-06-17T11:27:40.331Z,41.82
2018-06-17T11:28:40.270Z,42.68
2018-06-17T11:29:40.195Z,42.95
2018-06-17T11:30:40.132Z,43.07
2018-06-17T11:31:40.070Z,42.27
2018-06-17T11:32:40.009Z,41.42
2018-06-17T11:33:39.946Z,41.35
2018-06-17T11:34:39.885Z,41.52
2018-06-17T11:35:39.832Z,42.27
2018-06-17T11:36:39.771Z,42.09
2018-06-17T11:37:39.707Z,42.56
2018-06-17T11:38:39.645Z,42.29
2018-06-17T11:39:39.583Z,40.94
2018-06-17T11:40:39.521Z,41.05
2018-06-17T11:41:39.475Z,40.84
2018-06-17T11:42:39.396Z,41.08
2018-06-17T11:43:39.335Z,41.05
2018-06-17T11:44:39.281Z,41.27
2018-06-17T11:45:39.210Z,42.99
2018-06-17T11:46:39.148Z,44.37
2018-06-17T11:47:39.084Z,46.93
2018-06-17T11:48:39.022Z,47.46
2018-06-17T11:49:38.960Z,45.65
2018-06-17T11:50:38.899Z,45.02
2018-06-17T11:51:38.836Z,43.96
2018-06-17T11:52:38.773Z,43.30
2018-06-17T11:53:38.709Z,43.48
2018-06-17T11:54:38.648Z,42.64
2018-06-17T11:55:38.594Z,42.93
2018-06-17T11:56:38.522Z,42.46
2018-06-17T11:57:38.459Z,41.52
2018-06-17T11:58:38.398Z,41.03
2018-06-17T11:59:38.350Z,40.95
2018-06-17T12:00:38.261Z,40.84
2018-06-17T12:01:38.199Z,41.09
2018-06-17T12:02:38.148Z,41.11
2018-06-17T12:03:38.074Z,40.45
2018-06-17T12:04:38.011Z,40.25
2018-06-17T12:05:37.950Z,42.89
2018-06-17T12:06:37.889Z,43.10
2018-06-17T12:07:37.824Z,41.68
2018-06-17T12:08:37.780Z,40.90
2018-06-17T12:09:37.751Z,41.56
2018-06-17T12:10:37.636Z,42.30
2018-06-17T12:11:37.575Z,44.12
2018-06-17T12:12:37.512Z,44.14
2018-06-17T12:13:37.450Z,43.28
2018-06-17T12:14:37.393Z,42.79
2018-06-17T12:15:37.325Z,43.01
2018-06-17T12:16:37.262Z,43.85
2018-06-17T12:17:37.200Z,44.43
2018-06-17T12:18:37.137Z,43.57
2018-06-17T12:19:37.074Z,42.15
2018-06-17T12:20:37.015Z,41.58
2018-06-17T12:21:36.991Z,41.46
2018-06-17T12:22:36.879Z,41.36
2018-06-17T12:23:36.830Z,42.13
2018-06-17T12:24:36.755Z,42.21
2018-06-17T12:25:36.688Z,42.99
2018-06-17T12:26:36.626Z,42.91
2018-06-17T12:27:36.562Z,43.73
2018-06-17T12:28:36.502Z,44.76
2018-06-17T12:29:36.441Z,46.64
2018-06-17T12:30:36.376Z,48.10
2018-06-17T12:31:36.326Z,47.36
2018-06-17T12:32:36.239Z,45.95
2018-06-17T12:33:36.176Z,45.36
2018-06-17T12:34:36.114Z,44.58
2018-06-17T12:35:36.052Z,45.81
2018-06-17T12:36:35.988Z,48.10
2018-06-17T12:37:35.927Z,48.66
2018-06-17T12:38:35.854Z,49.32
2018-06-17T12:39:35.790Z,47.53
2018-06-17T12:40:35.727Z,46.34
2018-06-17T12:41:35.664Z,44.92
2018-06-17T12:42:35.650Z,43.26
2018-06-17T12:43:35.530Z,43.38
2018-06-17T12:44:35.465Z,42.64
2018-06-17T12:45:35.414Z,41.35
2018-06-17T12:46:35.342Z,42.21
2018-06-17T12:47:35.279Z,41.54
2018-06-17T12:48:35.215Z,41.09
2018-06-17T12:49:35.155Z,40.78
2018-06-17T12:50:35.105Z,42.52
2018-06-17T12:51:35.016Z,41.88
2018-06-17T12:52:34.954Z,42.46
2018-06-17T12:53:34.890Z,42.52
2018-06-17T12:54:34.828Z,42.42